Decoded Metar for LFJL (METZ in FRANCE) (IATA:ETZ) | Meteo·Mobile Aviation Weather
aviador You're here:

LFJL Decoded Metar

METZ in FRANCE
Report Time2018-08-21 16:00:00
UTC Time2018-08-21 16:07:04
Flight Rules vfr VFR
WindVRB at 06 kt
Visibility9999 m
Phenomena:N/A
Clouds:N/A
Expected CloudBase > 6,000 ft AGL from Temp-Dew spread
CeilingNone
Temp29°C (ISA +16)
Dew Point14°C (40% RH)
Heat Index28.6°C
AAT28.1°C
QNH1018 hPa
Density Alt2,717 ft
Elevation866 ft
Report Wrong Elevation
Raw Report
METAR LFJL 211600Z AUTO VRB06KT CAVOK 29/14 Q1018 NOSIG=

Extra information for LFJL:More info

Metar Taf Metar & Taf Last 4 Metars F.Rules Stats Wind Profile Meteogram Temp Stats Airport Information Weather charts Add Link Nearby VenuesMetar ALERT Operation Metar Decoded Social comments